sensor_id;sensor_type;location;lat;lon;timestamp;P1;durP1;ratioP1;P2;durP2;ratioP2
65275;SDS011;51875;49.994;14.052;2024-02-15T00:00:12;6.85;;;4.13;;
65275;SDS011;51875;49.994;14.052;2024-02-15T00:01:28;6.57;;;4.00;;
65275;SDS011;51875;49.994;14.052;2024-02-15T00:02:44;9.68;;;4.30;;
65275;SDS011;51875;49.994;14.052;2024-02-15T00:04:00;7.57;;;4.13;;
65275;SDS011;51875;49.994;14.052;2024-02-15T00:05:16;6.45;;;4.05;;
65275;SDS011;51875;49.994;14.052;2024-02-15T00:06:32;6.28;;;3.90;;
65275;SDS011;51875;49.994;14.052;2024-02-15T00:07:48;7.63;;;4.10;;
65275;SDS011;51875;49.994;14.052;2024-02-15T00:09:04;5.05;;;3.75;;
65275;SDS011;51875;49.994;14.052;2024-02-15T00:10:20;7.55;;;3.97;;
65275;SDS011;51875;49.994;14.052;2024-02-15T00:11:40;6.60;;;3.85;;
65275;SDS011;51875;49.994;14.052;2024-02-15T00:12:56;5.72;;;3.75;;
65275;SDS011;51875;49.994;14.052;2024-02-15T00:14:12;7.75;;;3.85;;
65275;SDS011;51875;49.994;14.052;2024-02-15T00:15:28;7.18;;;4.28;;
65275;SDS011;51875;49.994;14.052;2024-02-15T00:16:44;5.75;;;3.75;;
65275;SDS011;51875;49.994;14.052;2024-02-15T00:18:01;6.88;;;3.78;;
65275;SDS011;51875;49.994;14.052;2024-02-15T00:19:18;7.35;;;4.18;;
65275;SDS011;51875;49.994;14.052;2024-02-15T00:20:34;6.85;;;4.00;;
65275;SDS011;51875;49.994;14.052;2024-02-15T00:21:50;6.18;;;4.40;;
65275;SDS011;51875;49.994;14.052;2024-02-15T00:23:06;6.93;;;4.03;;
65275;SDS011;51875;49.994;14.052;2024-02-15T00:24:23;5.28;;;3.72;;
65275;SDS011;51875;49.994;14.052;2024-02-15T00:25:42;6.57;;;3.90;;
65275;SDS011;51875;49.994;14.052;2024-02-15T00:27:00;6.63;;;3.88;;
65275;SDS011;51875;49.994;14.052;2024-02-15T00:28:17;5.47;;;3.65;;
65275;SDS011;51875;49.994;14.052;2024-02-15T00:29:33;9.13;;;4.70;;
65275;SDS011;51875;49.994;14.052;2024-02-15T00:30:50;4.75;;;3.63;;
65275;SDS011;51875;49.994;14.052;2024-02-15T00:32:06;6.53;;;4.50;;
65275;SDS011;51875;49.994;14.052;2024-02-15T00:33:22;6.65;;;4.00;;
65275;SDS011;51875;49.994;14.052;2024-02-15T00:34:38;9.73;;;4.25;;
65275;SDS011;51875;49.994;14.052;2024-02-15T00:35:54;7.55;;;4.32;;
65275;SDS011;51875;49.994;14.052;2024-02-15T00:37:10;6.63;;;4.00;;
65275;SDS011;51875;49.994;14.052;2024-02-15T00:38:26;5.68;;;3.78;;
65275;SDS011;51875;49.994;14.052;2024-02-15T00:39:42;5.60;;;3.67;;
65275;SDS011;51875;49.994;14.052;2024-02-15T00:40:58;5.65;;;3.58;;
65275;SDS011;51875;49.994;14.052;2024-02-15T00:42:14;6.40;;;3.50;;
65275;SDS011;51875;49.994;14.052;2024-02-15T00:43:33;6.28;;;3.53;;
65275;SDS011;51875;49.994;14.052;2024-02-15T00:44:50;7.25;;;4.07;;
65275;SDS011;51875;49.994;14.052;2024-02-15T00:46:06;8.45;;;3.67;;
65275;SDS011;51875;49.994;14.052;2024-02-15T00:47:22;8.32;;;3.70;;
65275;SDS011;51875;49.994;14.052;2024-02-15T00:48:38;5.85;;;3.72;;
65275;SDS011;51875;49.994;14.052;2024-02-15T00:49:54;7.43;;;3.75;;
65275;SDS011;51875;49.994;14.052;2024-02-15T00:51:10;5.80;;;3.90;;
65275;SDS011;51875;49.994;14.052;2024-02-15T00:52:26;6.10;;;3.65;;
65275;SDS011;51875;49.994;14.052;2024-02-15T00:53:42;5.38;;;3.60;;
65275;SDS011;51875;49.994;14.052;2024-02-15T00:54:58;5.07;;;3.40;;
65275;SDS011;51875;49.994;14.052;2024-02-15T00:56:13;4.93;;;3.42;;
65275;SDS011;51875;49.994;14.052;2024-02-15T00:57:29;5.97;;;3.50;;
65275;SDS011;51875;49.994;14.052;2024-02-15T00:58:45;6.65;;;3.70;;
65275;SDS011;51875;49.994;14.052;2024-02-15T01:00:01;6.05;;;4.13;;
65275;SDS011;51875;49.994;14.052;2024-02-15T01:01:19;6.18;;;3.50;;
65275;SDS011;51875;49.994;14.052;2024-02-15T01:02:35;5.68;;;3.78;;
65275;SDS011;51875;49.994;14.052;2024-02-15T01:03:51;6.80;;;4.10;;
65275;SDS011;51875;49.994;14.052;2024-02-15T01:05:07;6.10;;;3.97;;
65275;SDS011;51875;49.994;14.052;2024-02-15T01:06:25;6.38;;;3.80;;
65275;SDS011;51875;49.994;14.052;2024-02-15T01:07:41;5.35;;;3.75;;
65275;SDS011;51875;49.994;14.052;2024-02-15T01:08:57;6.38;;;3.95;;
65275;SDS011;51875;49.994;14.052;2024-02-15T01:10:13;7.95;;;4.30;;
65275;SDS011;51875;49.994;14.052;2024-02-15T01:11:29;5.28;;;3.67;;
65275;SDS011;51875;49.994;14.052;2024-02-15T01:12:47;7.53;;;4.07;;
65275;SDS011;51875;49.994;14.052;2024-02-15T01:14:04;8.90;;;4.80;;
65275;SDS011;51875;49.994;14.052;2024-02-15T01:15:20;8.38;;;4.28;;
65275;SDS011;51875;49.994;14.052;2024-02-15T01:16:36;5.82;;;3.70;;
65275;SDS011;51875;49.994;14.052;2024-02-15T01:17:52;5.95;;;3.45;;
65275;SDS011;51875;49.994;14.052;2024-02-15T01:19:08;9.48;;;4.32;;
65275;SDS011;51875;49.994;14.052;2024-02-15T01:20:24;8.35;;;4.93;;
65275;SDS011;51875;49.994;14.052;2024-02-15T01:21:40;8.05;;;4.55;;
65275;SDS011;51875;49.994;14.052;2024-02-15T01:22:56;8.52;;;4.30;;
65275;SDS011;51875;49.994;14.052;2024-02-15T01:24:12;5.13;;;3.70;;
65275;SDS011;51875;49.994;14.052;2024-02-15T01:25:28;7.45;;;4.45;;
65275;SDS011;51875;49.994;14.052;2024-02-15T01:26:44;9.65;;;4.25;;
65275;SDS011;51875;49.994;14.052;2024-02-15T01:28:00;7.40;;;4.38;;
65275;SDS011;51875;49.994;14.052;2024-02-15T01:29:17;7.35;;;4.50;;
65275;SDS011;51875;49.994;14.052;2024-02-15T01:30:33;6.38;;;4.13;;
65275;SDS011;51875;49.994;14.052;2024-02-15T01:31:49;8.82;;;4.57;;
65275;SDS011;51875;49.994;14.052;2024-02-15T01:33:05;14.77;;;7.78;;
65275;SDS011;51875;49.994;14.052;2024-02-15T01:34:21;14.23;;;8.07;;
65275;SDS011;51875;49.994;14.052;2024-02-15T01:35:37;11.48;;;7.22;;
65275;SDS011;51875;49.994;14.052;2024-02-15T01:36:53;10.55;;;6.40;;
65275;SDS011;51875;49.994;14.052;2024-02-15T01:38:09;11.27;;;6.30;;
65275;SDS011;51875;49.994;14.052;2024-02-15T01:39:26;11.23;;;6.15;;
65275;SDS011;51875;49.994;14.052;2024-02-15T01:40:42;10.77;;;6.13;;
65275;SDS011;51875;49.994;14.052;2024-02-15T01:41:58;9.52;;;5.50;;
65275;SDS011;51875;49.994;14.052;2024-02-15T01:43:14;7.68;;;5.32;;
65275;SDS011;51875;49.994;14.052;2024-02-15T01:44:31;8.02;;;5.07;;
65275;SDS011;51875;49.994;14.052;2024-02-15T02:07:43;10.95;;;5.88;;
65275;SDS011;51875;49.994;14.052;2024-02-15T02:08:59;10.95;;;5.28;;
65275;SDS011;51875;49.994;14.052;2024-02-15T02:10:15;9.98;;;6.32;;
65275;SDS011;51875;49.994;14.052;2024-02-15T02:11:31;11.10;;;6.25;;
65275;SDS011;51875;49.994;14.052;2024-02-15T02:12:47;10.00;;;6.38;;
65275;SDS011;51875;49.994;14.052;2024-02-15T02:14:03;10.20;;;6.20;;
65275;SDS011;51875;49.994;14.052;2024-02-15T02:15:19;8.93;;;6.07;;
65275;SDS011;51875;49.994;14.052;2024-02-15T02:16:35;10.18;;;6.15;;
65275;SDS011;51875;49.994;14.052;2024-02-15T02:17:51;9.50;;;6.40;;
65275;SDS011;51875;49.994;14.052;2024-02-15T02:19:07;10.38;;;6.35;;
65275;SDS011;51875;49.994;14.052;2024-02-15T02:20:27;11.07;;;6.22;;
65275;SDS011;51875;49.994;14.052;2024-02-15T02:21:43;10.10;;;5.80;;
65275;SDS011;51875;49.994;14.052;2024-02-15T02:23:07;10.60;;;6.45;;
65275;SDS011;51875;49.994;14.052;2024-02-15T02:24:25;9.13;;;5.00;;
65275;SDS011;51875;49.994;14.052;2024-02-15T02:25:42;8.20;;;4.68;;
65275;SDS011;51875;49.994;14.052;2024-02-15T02:26:59;7.80;;;4.93;;
65275;SDS011;51875;49.994;14.052;2024-02-15T02:28:15;9.13;;;5.03;;
65275;SDS011;51875;49.994;14.052;2024-02-15T02:29:32;12.27;;;6.13;;
65275;SDS011;51875;49.994;14.052;2024-02-15T02:30:48;9.40;;;5.80;;
65275;SDS011;51875;49.994;14.052;2024-02-15T02:32:04;10.20;;;5.60;;
65275;SDS011;51875;49.994;14.052;2024-02-15T02:33:21;9.38;;;5.28;;
65275;SDS011;51875;49.994;14.052;2024-02-15T02:34:38;9.15;;;4.90;;
65275;SDS011;51875;49.994;14.052;2024-02-15T02:35:56;7.65;;;4.53;;
65275;SDS011;51875;49.994;14.052;2024-02-15T02:37:13;7.82;;;4.45;;
65275;SDS011;51875;49.994;14.052;2024-02-15T02:38:29;7.97;;;4.65;;
65275;SDS011;51875;49.994;14.052;2024-02-15T02:39:45;7.90;;;5.18;;
65275;SDS011;51875;49.994;14.052;2024-02-15T02:41:01;8.18;;;4.50;;
65275;SDS011;51875;49.994;14.052;2024-02-15T02:42:17;8.25;;;5.00;;
65275;SDS011;51875;49.994;14.052;2024-02-15T02:43:33;10.13;;;5.22;;
65275;SDS011;51875;49.994;14.052;2024-02-15T02:44:50;7.47;;;5.00;;
65275;SDS011;51875;49.994;14.052;2024-02-15T02:46:06;8.18;;;4.97;;
65275;SDS011;51875;49.994;14.052;2024-02-15T02:47:22;8.45;;;5.32;;
65275;SDS011;51875;49.994;14.052;2024-02-15T02:48:38;9.45;;;5.03;;
65275;SDS011;51875;49.994;14.052;2024-02-15T02:49:55;8.10;;;5.53;;
65275;SDS011;51875;49.994;14.052;2024-02-15T02:51:11;9.40;;;4.85;;
65275;SDS011;51875;49.994;14.052;2024-02-15T02:52:27;9.60;;;5.25;;
65275;SDS011;51875;49.994;14.052;2024-02-15T02:53:43;9.85;;;4.90;;
65275;SDS011;51875;49.994;14.052;2024-02-15T02:54:59;8.43;;;4.88;;
65275;SDS011;51875;49.994;14.052;2024-02-15T02:56:15;10.98;;;5.45;;
65275;SDS011;51875;49.994;14.052;2024-02-15T02:57:31;8.88;;;5.38;;
65275;SDS011;51875;49.994;14.052;2024-02-15T02:58:47;7.72;;;5.07;;
65275;SDS011;51875;49.994;14.052;2024-02-15T03:00:06;9.23;;;4.97;;
65275;SDS011;51875;49.994;14.052;2024-02-15T03:01:31;11.90;;;6.05;;
65275;SDS011;51875;49.994;14.052;2024-02-15T03:02:47;9.90;;;5.28;;
65275;SDS011;51875;49.994;14.052;2024-02-15T03:04:03;9.52;;;5.40;;
65275;SDS011;51875;49.994;14.052;2024-02-15T03:05:19;11.02;;;5.88;;
65275;SDS011;51875;49.994;14.052;2024-02-15T03:06:36;10.13;;;5.97;;
65275;SDS011;51875;49.994;14.052;2024-02-15T03:07:52;8.75;;;5.15;;
65275;SDS011;51875;49.994;14.052;2024-02-15T03:09:08;8.38;;;4.50;;
65275;SDS011;51875;49.994;14.052;2024-02-15T03:10:25;9.48;;;5.20;;
65275;SDS011;51875;49.994;14.052;2024-02-15T03:11:41;9.60;;;5.45;;
65275;SDS011;51875;49.994;14.052;2024-02-15T03:12:58;9.52;;;5.00;;
65275;SDS011;51875;49.994;14.052;2024-02-15T03:14:14;9.88;;;5.45;;
65275;SDS011;51875;49.994;14.052;2024-02-15T03:15:30;13.25;;;5.88;;
65275;SDS011;51875;49.994;14.052;2024-02-15T03:16:48;9.25;;;5.32;;
65275;SDS011;51875;49.994;14.052;2024-02-15T03:18:04;10.25;;;5.93;;
65275;SDS011;51875;49.994;14.052;2024-02-15T03:19:22;10.18;;;5.30;;
65275;SDS011;51875;49.994;14.052;2024-02-15T03:20:38;9.07;;;5.47;;
65275;SDS011;51875;49.994;14.052;2024-02-15T03:21:54;9.55;;;5.82;;
65275;SDS011;51875;49.994;14.052;2024-02-15T03:23:10;9.60;;;5.45;;
65275;SDS011;51875;49.994;14.052;2024-02-15T03:24:26;11.23;;;6.03;;
65275;SDS011;51875;49.994;14.052;2024-02-15T03:25:42;12.38;;;5.40;;
65275;SDS011;51875;49.994;14.052;2024-02-15T03:26:58;11.95;;;5.60;;
65275;SDS011;51875;49.994;14.052;2024-02-15T03:28:15;9.88;;;6.00;;
65275;SDS011;51875;49.994;14.052;2024-02-15T03:29:31;8.40;;;5.15;;
65275;SDS011;51875;49.994;14.052;2024-02-15T03:30:49;9.20;;;4.93;;
65275;SDS011;51875;49.994;14.052;2024-02-15T03:32:05;9.27;;;5.03;;
65275;SDS011;51875;49.994;14.052;2024-02-15T03:33:22;9.32;;;5.03;;
65275;SDS011;51875;49.994;14.052;2024-02-15T03:34:41;8.82;;;5.20;;
65275;SDS011;51875;49.994;14.052;2024-02-15T03:35:58;8.10;;;4.60;;
65275;SDS011;51875;49.994;14.052;2024-02-15T03:37:16;9.52;;;5.00;;
65275;SDS011;51875;49.994;14.052;2024-02-15T03:38:33;6.85;;;4.18;;
65275;SDS011;51875;49.994;14.052;2024-02-15T03:39:49;8.73;;;4.78;;
65275;SDS011;51875;49.994;14.052;2024-02-15T03:41:05;8.90;;;4.80;;
65275;SDS011;51875;49.994;14.052;2024-02-15T03:42:21;9.55;;;4.93;;
65275;SDS011;51875;49.994;14.052;2024-02-15T03:43:37;7.75;;;4.97;;
65275;SDS011;51875;49.994;14.052;2024-02-15T03:44:54;9.85;;;4.72;;
65275;SDS011;51875;49.994;14.052;2024-02-15T03:46:10;10.38;;;5.25;;
65275;SDS011;51875;49.994;14.052;2024-02-15T03:47:28;8.75;;;5.28;;
65275;SDS011;51875;49.994;14.052;2024-02-15T03:48:44;8.27;;;4.82;;
65275;SDS011;51875;49.994;14.052;2024-02-15T03:50:01;10.05;;;5.55;;
65275;SDS011;51875;49.994;14.052;2024-02-15T03:51:18;10.70;;;5.75;;
65275;SDS011;51875;49.994;14.052;2024-02-15T03:52:36;9.77;;;6.13;;
65275;SDS011;51875;49.994;14.052;2024-02-15T03:53:53;12.45;;;6.75;;
65275;SDS011;51875;49.994;14.052;2024-02-15T03:55:08;11.95;;;6.75;;
65275;SDS011;51875;49.994;14.052;2024-02-15T03:56:24;10.95;;;5.38;;
65275;SDS011;51875;49.994;14.052;2024-02-15T03:57:40;9.57;;;5.55;;
65275;SDS011;51875;49.994;14.052;2024-02-15T03:58:59;10.60;;;6.55;;
65275;SDS011;51875;49.994;14.052;2024-02-15T04:00:15;10.23;;;6.32;;
65275;SDS011;51875;49.994;14.052;2024-02-15T04:01:36;9.38;;;5.63;;
65275;SDS011;51875;49.994;14.052;2024-02-15T04:02:53;8.02;;;4.82;;
65275;SDS011;51875;49.994;14.052;2024-02-15T04:04:09;9.90;;;5.05;;
65275;SDS011;51875;49.994;14.052;2024-02-15T04:05:25;8.50;;;5.15;;
65275;SDS011;51875;49.994;14.052;2024-02-15T04:06:41;11.10;;;5.25;;
65275;SDS011;51875;49.994;14.052;2024-02-15T04:07:58;10.25;;;5.53;;
65275;SDS011;51875;49.994;14.052;2024-02-15T04:09:14;8.15;;;4.57;;
65275;SDS011;51875;49.994;14.052;2024-02-15T04:10:31;7.65;;;5.05;;
65275;SDS011;51875;49.994;14.052;2024-02-15T04:11:47;7.18;;;4.20;;
65275;SDS011;51875;49.994;14.052;2024-02-15T04:13:05;8.45;;;4.88;;
65275;SDS011;51875;49.994;14.052;2024-02-15T04:14:22;7.00;;;4.53;;
65275;SDS011;51875;49.994;14.052;2024-02-15T04:15:39;9.93;;;5.22;;
65275;SDS011;51875;49.994;14.052;2024-02-15T04:16:57;10.50;;;5.22;;
65275;SDS011;51875;49.994;14.052;2024-02-15T04:18:14;9.50;;;5.55;;
65275;SDS011;51875;49.994;14.052;2024-02-15T04:19:32;12.05;;;6.10;;
65275;SDS011;51875;49.994;14.052;2024-02-15T04:20:48;12.73;;;7.20;;
65275;SDS011;51875;49.994;14.052;2024-02-15T04:22:04;15.05;;;6.88;;
65275;SDS011;51875;49.994;14.052;2024-02-15T04:23:23;14.00;;;7.10;;
65275;SDS011;51875;49.994;14.052;2024-02-15T04:24:39;13.95;;;7.05;;
65275;SDS011;51875;49.994;14.052;2024-02-15T04:25:55;13.40;;;7.20;;
65275;SDS011;51875;49.994;14.052;2024-02-15T04:27:11;14.65;;;7.32;;
65275;SDS011;51875;49.994;14.052;2024-02-15T04:28:28;13.80;;;7.50;;
65275;SDS011;51875;49.994;14.052;2024-02-15T04:29:44;15.63;;;8.45;;
65275;SDS011;51875;49.994;14.052;2024-02-15T04:31:01;14.50;;;8.05;;
65275;SDS011;51875;49.994;14.052;2024-02-15T04:32:17;13.73;;;7.70;;
65275;SDS011;51875;49.994;14.052;2024-02-15T04:33:34;12.23;;;7.57;;
65275;SDS011;51875;49.994;14.052;2024-02-15T04:34:50;13.38;;;7.43;;
65275;SDS011;51875;49.994;14.052;2024-02-15T04:36:07;13.73;;;7.05;;
65275;SDS011;51875;49.994;14.052;2024-02-15T04:37:23;13.48;;;6.72;;
65275;SDS011;51875;49.994;14.052;2024-02-15T04:38:39;13.48;;;7.30;;
65275;SDS011;51875;49.994;14.052;2024-02-15T04:39:55;15.27;;;8.02;;
65275;SDS011;51875;49.994;14.052;2024-02-15T04:41:12;16.13;;;8.20;;
65275;SDS011;51875;49.994;14.052;2024-02-15T04:42:28;14.85;;;7.13;;
65275;SDS011;51875;49.994;14.052;2024-02-15T04:43:46;12.55;;;7.05;;
65275;SDS011;51875;49.994;14.052;2024-02-15T04:45:02;10.52;;;6.47;;
65275;SDS011;51875;49.994;14.052;2024-02-15T04:46:21;12.48;;;6.32;;
65275;SDS011;51875;49.994;14.052;2024-02-15T04:47:38;13.98;;;6.75;;
65275;SDS011;51875;49.994;14.052;2024-02-15T04:48:55;11.18;;;7.25;;
65275;SDS011;51875;49.994;14.052;2024-02-15T04:50:13;10.93;;;7.10;;
65275;SDS011;51875;49.994;14.052;2024-02-15T04:51:30;13.32;;;7.13;;
65275;SDS011;51875;49.994;14.052;2024-02-15T04:52:47;11.05;;;6.78;;
65275;SDS011;51875;49.994;14.052;2024-02-15T04:54:05;12.02;;;7.97;;
65275;SDS011;51875;49.994;14.052;2024-02-15T04:55:33;13.52;;;7.15;;
65275;SDS011;51875;49.994;14.052;2024-02-15T04:56:49;11.32;;;7.28;;
65275;SDS011;51875;49.994;14.052;2024-02-15T04:58:12;11.80;;;7.10;;
65275;SDS011;51875;49.994;14.052;2024-02-15T04:59:34;12.30;;;7.13;;
65275;SDS011;51875;49.994;14.052;2024-02-15T05:00:53;11.35;;;6.65;;
65275;SDS011;51875;49.994;14.052;2024-02-15T05:02:14;10.38;;;7.13;;
65275;SDS011;51875;49.994;14.052;2024-02-15T05:03:31;13.45;;;6.82;;
65275;SDS011;51875;49.994;14.052;2024-02-15T05:04:50;11.48;;;6.63;;
65275;SDS011;51875;49.994;14.052;2024-02-15T05:06:11;10.02;;;6.35;;
65275;SDS011;51875;49.994;14.052;2024-02-15T05:07:28;11.00;;;6.68;;
65275;SDS011;51875;49.994;14.052;2024-02-15T05:08:44;12.85;;;6.88;;
65275;SDS011;51875;49.994;14.052;2024-02-15T05:10:00;11.38;;;6.55;;
65275;SDS011;51875;49.994;14.052;2024-02-15T05:11:21;10.13;;;5.63;;
65275;SDS011;51875;49.994;14.052;2024-02-15T05:12:38;9.35;;;5.50;;
65275;SDS011;51875;49.994;14.052;2024-02-15T05:13:55;11.38;;;5.97;;
65275;SDS011;51875;49.994;14.052;2024-02-15T05:15:14;9.75;;;5.47;;
65275;SDS011;51875;49.994;14.052;2024-02-15T05:16:33;11.20;;;5.45;;
65275;SDS011;51875;49.994;14.052;2024-02-15T05:17:57;8.80;;;5.43;;
65275;SDS011;51875;49.994;14.052;2024-02-15T05:19:14;9.98;;;5.55;;
65275;SDS011;51875;49.994;14.052;2024-02-15T05:20:31;8.68;;;5.38;;
65275;SDS011;51875;49.994;14.052;2024-02-15T05:21:47;8.63;;;5.68;;
65275;SDS011;51875;49.994;14.052;2024-02-15T05:23:03;10.43;;;5.88;;
65275;SDS011;51875;49.994;14.052;2024-02-15T05:24:19;10.65;;;5.72;;
65275;SDS011;51875;49.994;14.052;2024-02-15T05:25:35;10.32;;;5.97;;
65275;SDS011;51875;49.994;14.052;2024-02-15T05:26:51;11.70;;;6.13;;
65275;SDS011;51875;49.994;14.052;2024-02-15T05:28:08;11.90;;;6.20;;
65275;SDS011;51875;49.994;14.052;2024-02-15T05:29:24;9.50;;;5.65;;
65275;SDS011;51875;49.994;14.052;2024-02-15T05:30:43;9.48;;;5.95;;
65275;SDS011;51875;49.994;14.052;2024-02-15T05:32:02;9.77;;;5.57;;
65275;SDS011;51875;49.994;14.052;2024-02-15T05:33:18;9.30;;;5.82;;
65275;SDS011;51875;49.994;14.052;2024-02-15T05:34:34;11.85;;;6.03;;
65275;SDS011;51875;49.994;14.052;2024-02-15T05:35:55;8.57;;;5.45;;
65275;SDS011;51875;49.994;14.052;2024-02-15T05:37:11;9.35;;;5.38;;
65275;SDS011;51875;49.994;14.052;2024-02-15T05:38:27;13.18;;;6.10;;
65275;SDS011;51875;49.994;14.052;2024-02-15T05:39:44;10.35;;;5.55;;
65275;SDS011;51875;49.994;14.052;2024-02-15T05:41:00;12.25;;;6.10;;
65275;SDS011;51875;49.994;14.052;2024-02-15T05:42:16;9.98;;;5.80;;
65275;SDS011;51875;49.994;14.052;2024-02-15T05:43:33;15.57;;;6.53;;
65275;SDS011;51875;49.994;14.052;2024-02-15T05:44:51;11.60;;;6.15;;
65275;SDS011;51875;49.994;14.052;2024-02-15T05:46:08;12.05;;;6.82;;
65275;SDS011;51875;49.994;14.052;2024-02-15T05:47:26;9.10;;;6.40;;
65275;SDS011;51875;49.994;14.052;2024-02-15T05:48:42;9.48;;;5.60;;
65275;SDS011;51875;49.994;14.052;2024-02-15T05:49:57;8.43;;;6.05;;
65275;SDS011;51875;49.994;14.052;2024-02-15T05:51:14;11.13;;;6.97;;
65275;SDS011;51875;49.994;14.052;2024-02-15T05:52:30;10.88;;;6.22;;
65275;SDS011;51875;49.994;14.052;2024-02-15T05:53:47;13.52;;;6.60;;
65275;SDS011;51875;49.994;14.052;2024-02-15T05:55:03;9.27;;;5.90;;
65275;SDS011;51875;49.994;14.052;2024-02-15T05:56:19;9.25;;;5.82;;
65275;SDS011;51875;49.994;14.052;2024-02-15T05:57:35;9.30;;;5.57;;
65275;SDS011;51875;49.994;14.052;2024-02-15T05:58:52;10.93;;;5.35;;
65275;SDS011;51875;49.994;14.052;2024-02-15T06:00:08;10.38;;;5.97;;
65275;SDS011;51875;49.994;14.052;2024-02-15T06:01:24;11.48;;;6.53;;
65275;SDS011;51875;49.994;14.052;2024-02-15T06:02:40;11.10;;;6.72;;
65275;SDS011;51875;49.994;14.052;2024-02-15T06:03:56;10.70;;;6.50;;
65275;SDS011;51875;49.994;14.052;2024-02-15T06:05:13;11.55;;;6.65;;
65275;SDS011;51875;49.994;14.052;2024-02-15T06:06:32;11.25;;;6.55;;
65275;SDS011;51875;49.994;14.052;2024-02-15T06:07:49;9.45;;;6.50;;
65275;SDS011;51875;49.994;14.052;2024-02-15T06:09:05;11.90;;;6.93;;
65275;SDS011;51875;49.994;14.052;2024-02-15T06:10:21;14.30;;;6.75;;
65275;SDS011;51875;49.994;14.052;2024-02-15T06:11:37;9.73;;;6.50;;
65275;SDS011;51875;49.994;14.052;2024-02-15T06:12:53;8.65;;;6.05;;
65275;SDS011;51875;49.994;14.052;2024-02-15T06:14:10;11.75;;;6.70;;
65275;SDS011;51875;49.994;14.052;2024-02-15T06:15:26;11.77;;;6.75;;
65275;SDS011;51875;49.994;14.052;2024-02-15T06:16:43;9.93;;;6.07;;
65275;SDS011;51875;49.994;14.052;2024-02-15T06:18:00;12.30;;;6.80;;
65275;SDS011;51875;49.994;14.052;2024-02-15T06:19:16;9.73;;;6.32;;
65275;SDS011;51875;49.994;14.052;2024-02-15T06:20:33;10.93;;;6.68;;
65275;SDS011;51875;49.994;14.052;2024-02-15T06:21:49;10.50;;;6.78;;
65275;SDS011;51875;49.994;14.052;2024-02-15T06:23:06;12.32;;;7.13;;
65275;SDS011;51875;49.994;14.052;2024-02-15T06:24:23;11.55;;;6.60;;
65275;SDS011;51875;49.994;14.052;2024-02-15T06:25:39;10.60;;;6.22;;
65275;SDS011;51875;49.994;14.052;2024-02-15T06:26:55;10.15;;;6.70;;
65275;SDS011;51875;49.994;14.052;2024-02-15T06:28:15;10.10;;;6.07;;
65275;SDS011;51875;49.994;14.052;2024-02-15T06:29:50;10.43;;;6.10;;
65275;SDS011;51875;49.994;14.052;2024-02-15T06:31:25;10.38;;;6.38;;
65275;SDS011;51875;49.994;14.052;2024-02-15T06:32:59;10.25;;;5.95;;
65275;SDS011;51875;49.994;14.052;2024-02-15T06:34:34;8.07;;;5.35;;
65275;SDS011;51875;49.994;14.052;2024-02-15T06:36:09;9.75;;;6.35;;
65275;SDS011;51875;49.994;14.052;2024-02-15T06:37:43;9.27;;;6.18;;
65275;SDS011;51875;49.994;14.052;2024-02-15T06:39:18;11.85;;;6.28;;
65275;SDS011;51875;49.994;14.052;2024-02-15T06:40:53;10.77;;;6.25;;
65275;SDS011;51875;49.994;14.052;2024-02-15T06:42:15;10.10;;;6.32;;
65275;SDS011;51875;49.994;14.052;2024-02-15T06:43:35;12.82;;;6.72;;
65275;SDS011;51875;49.994;14.052;2024-02-15T06:44:51;11.93;;;7.28;;
65275;SDS011;51875;49.994;14.052;2024-02-15T06:46:08;13.68;;;7.80;;
65275;SDS011;51875;49.994;14.052;2024-02-15T06:47:35;11.13;;;6.65;;
65275;SDS011;51875;49.994;14.052;2024-02-15T06:48:50;11.20;;;7.03;;
65275;SDS011;51875;49.994;14.052;2024-02-15T06:50:08;11.98;;;7.03;;
65275;SDS011;51875;49.994;14.052;2024-02-15T06:51:27;14.10;;;7.60;;
65275;SDS011;51875;49.994;14.052;2024-02-15T06:52:43;14.82;;;8.07;;
65275;SDS011;51875;49.994;14.052;2024-02-15T06:54:00;14.93;;;7.20;;
65275;SDS011;51875;49.994;14.052;2024-02-15T06:55:17;13.45;;;7.50;;
65275;SDS011;51875;49.994;14.052;2024-02-15T06:56:38;12.20;;;7.45;;
65275;SDS011;51875;49.994;14.052;2024-02-15T06:57:54;11.82;;;7.20;;
65275;SDS011;51875;49.994;14.052;2024-02-15T06:59:11;13.27;;;7.07;;
65275;SDS011;51875;49.994;14.052;2024-02-15T07:00:29;10.50;;;6.55;;
65275;SDS011;51875;49.994;14.052;2024-02-15T07:01:51;12.15;;;6.72;;
65275;SDS011;51875;49.994;14.052;2024-02-15T07:03:10;11.48;;;6.78;;
65275;SDS011;51875;49.994;14.052;2024-02-15T07:04:29;13.30;;;7.00;;
65275;SDS011;51875;49.994;14.052;2024-02-15T07:05:45;11.27;;;7.18;;
65275;SDS011;51875;49.994;14.052;2024-02-15T07:07:01;12.90;;;7.30;;
65275;SDS011;51875;49.994;14.052;2024-02-15T07:08:18;11.68;;;6.80;;
65275;SDS011;51875;49.994;14.052;2024-02-15T07:09:34;11.32;;;6.97;;
65275;SDS011;51875;49.994;14.052;2024-02-15T07:10:51;10.93;;;7.10;;
65275;SDS011;51875;49.994;14.052;2024-02-15T07:12:07;13.50;;;7.13;;
65275;SDS011;51875;49.994;14.052;2024-02-15T07:13:24;12.45;;;7.07;;
65275;SDS011;51875;49.994;14.052;2024-02-15T07:14:42;13.23;;;7.32;;
65275;SDS011;51875;49.994;14.052;2024-02-15T07:15:59;11.15;;;7.57;;
65275;SDS011;51875;49.994;14.052;2024-02-15T07:17:15;12.90;;;7.72;;
65275;SDS011;51875;49.994;14.052;2024-02-15T07:18:31;11.63;;;7.18;;
65275;SDS011;51875;49.994;14.052;2024-02-15T07:19:47;11.57;;;7.00;;
65275;SDS011;51875;49.994;14.052;2024-02-15T07:21:04;12.30;;;7.75;;
65275;SDS011;51875;49.994;14.052;2024-02-15T07:22:26;11.63;;;7.15;;
65275;SDS011;51875;49.994;14.052;2024-02-15T07:23:42;11.57;;;6.65;;
65275;SDS011;51875;49.994;14.052;2024-02-15T07:24:58;11.50;;;6.60;;
65275;SDS011;51875;49.994;14.052;2024-02-15T07:26:16;14.07;;;6.95;;
65275;SDS011;51875;49.994;14.052;2024-02-15T07:27:34;10.68;;;6.50;;
65275;SDS011;51875;49.994;14.052;2024-02-15T07:28:54;11.88;;;7.28;;
65275;SDS011;51875;49.994;14.052;2024-02-15T07:30:10;9.90;;;6.03;;
65275;SDS011;51875;49.994;14.052;2024-02-15T07:31:29;12.90;;;6.57;;
65275;SDS011;51875;49.994;14.052;2024-02-15T07:32:46;11.15;;;6.90;;
65275;SDS011;51875;49.994;14.052;2024-02-15T07:34:05;10.05;;;6.65;;
65275;SDS011;51875;49.994;14.052;2024-02-15T07:35:22;13.85;;;7.47;;
65275;SDS011;51875;49.994;14.052;2024-02-15T07:36:41;10.05;;;6.57;;
65275;SDS011;51875;49.994;14.052;2024-02-15T07:37:59;11.43;;;6.88;;
65275;SDS011;51875;49.994;14.052;2024-02-15T07:39:17;11.25;;;7.20;;
65275;SDS011;51875;49.994;14.052;2024-02-15T07:40:40;12.52;;;6.78;;
65275;SDS011;51875;49.994;14.052;2024-02-15T07:41:57;11.95;;;7.35;;
65275;SDS011;51875;49.994;14.052;2024-02-15T07:43:15;10.60;;;6.60;;
65275;SDS011;51875;49.994;14.052;2024-02-15T07:44:35;13.45;;;8.35;;
65275;SDS011;51875;49.994;14.052;2024-02-15T07:45:52;16.08;;;9.40;;
65275;SDS011;51875;49.994;14.052;2024-02-15T07:47:08;16.85;;;9.38;;
65275;SDS011;51875;49.994;14.052;2024-02-15T07:48:26;25.77;;;14.05;;
65275;SDS011;51875;49.994;14.052;2024-02-15T07:49:42;23.77;;;13.73;;
65275;SDS011;51875;49.994;14.052;2024-02-15T07:50:59;36.50;;;20.75;;
65275;SDS011;51875;49.994;14.052;2024-02-15T07:52:15;29.88;;;16.80;;
65275;SDS011;51875;49.994;14.052;2024-02-15T07:53:31;17.85;;;11.57;;
65275;SDS011;51875;49.994;14.052;2024-02-15T07:54:47;20.45;;;12.15;;
65275;SDS011;51875;49.994;14.052;2024-02-15T07:56:04;18.08;;;11.75;;
65275;SDS011;51875;49.994;14.052;2024-02-15T07:57:21;19.45;;;11.82;;